Terminal Aerodrome Forecast
Issued by NWS

Home | Current Version | Previous Version | Text Only | Print | Product List | Glossary Off
Versions: 1 2 3 4 5 6 7 8 9 10 11 12 13 14 15 16 17

616
FTUS43 KICT 282330
TAFSLN
TAF
KSLN 282330Z 2900/2924 13011KT P6SM VCTS BKN060CB OVC150
      TEMPO 2900/2902 VRB25G35KT 3SM +TSRA OVC025CB
     FM290300 35005KT P6SM BKN100
     FM291500 06006KT P6SM FEW050=

USA.gov is the U.S. government's official web portal to all federal, state and local government web resources and services.